.
WxDataArchive / Data Records for 2010-04-15
2010-04-14 April 2010 2010-04-16

Data Records for Thursday, 15 April 2010

Time	Temp	Chill	HIndex	Humid	Dewpt	 Wind 	HiWind	WindDir	Rain 	Barom 
-----	----	-----	------	-----	-----	------	------	-------	-----	----- 
00:00	56.0	56.0	56.0	69	46.0	0	0	---	0.00	30.308 
00:05	55.7	55.7	55.7	71	46.4	0	0	---	0.00	30.308 
00:10	55.6	55.6	55.6	71	46.3	0	0	---	0.00	30.308 
00:15	55.4	55.4	55.4	71	46.2	0	0	---	0.00	30.303 
00:20	55.1	55.1	55.1	72	46.2	0	0	---	0.00	30.303 
00:25	55.0	55.0	55.0	72	46.1	0	0	---	0.00	30.303 
00:30	54.8	54.8	54.8	73	46.3	0	0	---	0.00	30.303 
00:35	54.7	54.7	54.7	73	46.2	0	0	---	0.00	30.303 
00:40	54.5	54.5	54.5	74	46.4	0	0	---	0.00	30.303 
00:45	54.4	54.4	54.4	74	46.3	0	0	---	0.00	30.301 
00:50	54.4	54.4	54.4	74	46.3	0	0	---	0.00	30.301 
00:55	54.2	54.2	54.2	74	46.1	0	0	---	0.00	30.301 
01:00	54.2	54.2	54.2	75	46.4	0	0	---	0.00	30.301 
01:05	54.5	54.5	54.5	75	46.7	0	0	---	0.00	30.301 
01:10	55.0	55.0	55.0	73	46.5	0	0	---	0.00	30.301 
01:15	55.7	55.7	55.7	71	46.4	0	1	158	0.00	30.297 
01:20	56.3	56.3	56.3	70	46.6	0	0	---	0.00	30.297 
01:25	56.7	56.7	56.7	69	46.6	0	1	158	0.00	30.297 
01:30	57.2	57.2	57.2	67	46.3	0	0	---	0.00	30.294 
01:35	57.5	57.5	57.5	66	46.2	0	0	---	0.00	30.294 
01:40	57.8	57.8	57.8	66	46.5	0	0	---	0.00	30.294 
01:45	58.0	58.0	58.0	65	46.3	0	0	---	0.00	30.292 
01:50	58.1	58.1	58.1	65	46.4	0	1	158	0.00	30.292 
01:55	58.3	58.3	58.3	64	46.2	0	0	---	0.00	30.292 
02:00	58.6	58.6	58.6	63	46.0	0	1	158	0.00	30.287 
02:05	58.9	58.9	58.9	62	45.9	0	1	158	0.00	30.287 
02:10	59.2	59.2	59.2	61	45.8	0	2	158	0.00	30.287 
02:15	59.5	59.5	59.5	61	46.0	0	1	158	0.00	30.280 
02:20	59.6	59.6	59.6	61	46.1	0	1	158	0.00	30.280 
02:25	59.8	59.8	59.8	60	45.9	0	1	158	0.00	30.280 
02:30	59.9	59.9	59.9	59	45.5	0	2	158	0.00	30.279 
02:35	60.2	60.2	60.2	59	45.8	0	1	158	0.00	30.279 
02:40	60.4	60.4	60.4	59	46.0	0	2	135	0.00	30.279 
02:45	60.4	60.4	60.4	59	46.0	0	0	---	0.00	30.279 
02:50	60.1	60.1	60.1	60	46.2	0	1	135	0.00	30.279 
02:55	59.8	59.8	59.8	60	45.9	0	2	135	0.00	30.279 
03:00	59.6	59.6	59.6	61	46.1	0	1	135	0.00	30.278 
03:05	59.3	59.3	59.3	62	46.3	0	1	135	0.00	30.278 
03:10	59.2	59.2	59.2	62	46.2	0	1	135	0.00	30.278 
03:15	58.9	58.9	58.9	62	45.9	0	0	---	0.00	30.277 
03:20	58.7	58.7	58.7	63	46.1	0	0	---	0.00	30.277 
03:25	58.4	58.4	58.4	63	45.9	0	0	---	0.00	30.277 
03:30	58.3	58.3	58.3	64	46.2	0	0	---	0.00	30.277 
03:35	58.0	58.0	58.0	64	45.9	0	1	135	0.00	30.277 
03:40	57.8	57.8	57.8	65	46.1	0	1	135	0.00	30.277 
03:45	57.5	57.5	57.5	65	45.8	0	0	---	0.00	30.276 
03:50	57.5	57.5	57.5	66	46.2	0	1	135	0.00	30.276 
03:55	57.2	57.2	57.2	66	45.9	0	0	---	0.00	30.276 
04:00	57.0	57.0	57.0	66	45.8	0	1	135	0.00	30.275 
04:05	57.0	57.0	57.0	67	46.2	0	1	135	0.00	30.275 
04:10	56.9	56.9	56.9	67	46.1	0	0	---	0.00	30.275 
04:15	56.6	56.6	56.6	68	46.2	0	0	---	0.00	30.276 
04:20	56.5	56.5	56.5	68	46.1	0	0	---	0.00	30.276 
04:25	56.2	56.2	56.2	69	46.2	0	0	---	0.00	30.276 
04:30	56.0	56.0	56.0	69	46.0	0	0	---	0.00	30.278 
04:35	55.9	55.9	55.9	69	45.9	0	0	---	0.00	30.278 
04:40	55.7	55.7	55.7	70	46.1	0	0	---	0.00	30.278 
04:45	55.7	55.7	55.7	70	46.1	0	0	---	0.00	30.279 
04:50	55.7	55.7	55.7	71	46.4	0	1	135	0.00	30.279 
04:55	55.9	55.9	55.9	70	46.3	0	2	158	0.00	30.279 
05:00	55.9	55.9	55.9	70	46.3	0	1	158	0.00	30.278 
05:05	56.0	56.0	56.0	70	46.4	0	1	158	0.00	30.278 
05:10	56.0	56.0	56.0	70	46.4	0	1	180	0.00	30.278 
05:15	56.0	56.0	56.0	70	46.4	0	1	180	0.00	30.277 
05:20	56.2	56.2	56.2	70	46.5	0	1	180	0.00	30.277 
05:25	56.2	56.2	56.2	70	46.5	0	0	---	0.00	30.277 
05:30	56.2	56.2	56.2	70	46.5	0	0	---	0.00	30.276 
05:35	56.0	56.0	56.0	70	46.4	0	2	248	0.00	30.276 
05:40	55.9	55.9	55.9	70	46.3	0	1	248	0.00	30.276 
05:45	55.7	55.7	55.7	71	46.4	0	1	248	0.00	30.279 
05:50	55.4	55.4	55.4	71	46.2	0	0	---	0.00	30.279 
05:55	55.3	55.3	55.3	72	46.4	0	1	248	0.00	30.279 
06:00	55.3	55.3	55.3	72	46.4	0	0	---	0.00	30.277 
06:05	55.1	55.1	55.1	72	46.2	0	1	248	0.00	30.277 
06:10	55.1	55.1	55.1	72	46.2	0	1	248	0.00	30.277 
06:15	55.1	55.1	55.1	72	46.2	0	1	248	0.00	30.281 
06:20	55.3	55.3	55.3	72	46.4	0	1	248	0.00	30.281 
06:25	55.3	55.3	55.3	72	46.4	0	2	248	0.00	30.281 
06:30	55.3	55.3	55.3	72	46.4	0	1	248	0.00	30.281 
06:35	55.4	55.4	55.4	73	46.9	0	2	248	0.00	30.281 
06:40	55.6	55.6	55.6	72	46.7	0	1	248	0.00	30.281 
06:45	55.6	55.6	55.6	72	46.7	0	1	248	0.00	30.280 
06:50	55.6	55.6	55.6	72	46.7	0	1	248	0.00	30.280 
06:55	55.6	55.6	55.6	72	46.7	0	1	248	0.00	30.280 
07:00	55.6	55.6	55.6	72	46.7	0	2	248	0.00	30.280 
07:05	55.6	55.6	55.6	72	46.7	0	2	248	0.00	30.280 
07:10	55.6	55.6	55.6	72	46.7	0	0	---	0.00	30.280 
07:15	55.6	55.6	55.6	72	46.7	0	1	248	0.00	30.283 
07:20	55.6	55.6	55.6	72	46.7	0	1	248	0.00	30.283 
07:25	55.7	55.7	55.7	73	47.2	0	1	248	0.00	30.283 
07:30	55.9	55.9	55.9	73	47.4	0	1	248	0.00	30.285 
07:35	56.2	56.2	56.2	72	47.3	0	1	248	0.00	30.285 
07:40	56.3	56.3	56.3	72	47.4	0	1	248	0.00	30.285 
07:45	56.6	56.6	56.6	72	47.7	0	2	248	0.00	30.285 
07:50	56.9	56.9	56.9	71	47.6	0	2	248	0.00	30.285 
07:55	57.6	57.6	57.6	70	47.9	1	4	248	0.00	30.285 
08:00	58.3	58.3	58.3	69	48.2	0	2	248	0.00	30.289 
08:05	58.9	58.9	58.9	68	48.4	0	2	248	0.00	30.289 
08:10	59.3	59.3	59.3	67	48.3	0	1	248	0.00	30.289 
08:15	59.9	59.9	59.9	66	48.5	0	2	248	0.00	30.296 
08:20	60.5	60.5	60.5	65	48.7	1	4	248	0.00	30.296 
08:25	61.2	61.2	61.2	64	48.9	1	5	248	0.00	30.296 
08:30	61.8	61.8	61.8	63	49.1	1	3	248	0.00	30.298 
08:35	62.3	62.3	62.3	62	49.1	1	3	248	0.00	30.298 
08:40	62.7	62.7	62.7	62	49.5	1	4	248	0.00	30.298 
08:45	63.1	63.1	63.1	60	49.0	1	3	248	0.00	30.295 
08:50	63.4	63.4	63.4	60	49.3	1	5	270	0.00	30.295 
08:55	63.9	63.9	63.9	59	49.3	1	3	270	0.00	30.295 
09:00	64.3	64.3	64.3	58	49.2	1	5	248	0.00	30.296 
09:05	64.7	64.7	64.7	58	49.6	1	5	248	0.00	30.296 
09:10	65.2	65.2	65.2	57	49.6	1	4	248	0.00	30.296 
09:15	65.6	65.6	65.6	56	49.5	2	7	248	0.00	30.296 
09:20	66.1	66.1	66.1	56	49.9	1	4	248	0.00	30.296 
09:25	66.4	66.4	66.4	54	49.2	2	5	270	0.00	30.296 
09:30	67.1	67.1	67.1	54	49.9	1	4	248	0.00	30.294 
09:35	67.6	67.6	67.6	53	49.9	2	4	248	0.00	30.294 
09:40	67.9	67.9	67.9	52	49.6	2	4	248	0.00	30.294 
09:45	68.4	68.4	68.4	52	50.1	2	5	225	0.00	30.292 
09:50	68.9	68.9	68.9	52	50.5	2	4	248	0.00	30.292 
09:55	69.3	69.3	69.3	49	49.3	2	5	248	0.00	30.292 
10:00	69.8	69.8	69.8	49	49.8	2	5	248	0.00	30.286 
10:05	70.3	70.3	70.3	50	50.8	2	5	248	0.00	30.286 
10:10	70.8	70.8	70.8	47	49.6	2	5	248	0.00	30.286 
10:15	71.1	71.1	71.1	46	49.3	3	6	248	0.00	30.289 
10:20	71.6	71.6	71.6	46	49.7	2	4	248	0.00	30.289 
10:25	72.0	72.0	72.0	46	50.1	2	5	248	0.00	30.289 
10:30	72.3	72.3	72.3	45	49.8	2	5	248	0.00	30.289 
10:35	72.5	72.5	72.5	47	51.1	2	6	248	0.00	30.289 
10:40	73.2	73.2	73.2	46	51.2	1	4	248	0.00	30.289 
10:45	73.5	73.5	73.5	44	50.2	2	5	248	0.00	30.286 
10:50	74.0	74.0	74.0	46	51.9	1	3	248	0.00	30.286 
10:55	74.4	74.4	74.4	44	51.0	2	3	248	0.00	30.286 
11:00	74.7	74.7	74.7	44	51.3	2	3	270	0.00	30.285 
11:05	74.9	74.9	74.9	42	50.2	3	5	248	0.00	30.285 
11:10	74.9	74.9	74.9	43	50.9	3	7	248	0.00	30.285 
11:15	75.3	75.3	77.7	43	51.2	2	5	248	0.00	30.281 
11:20	75.8	75.8	77.8	43	51.7	2	4	248	0.00	30.281 
11:25	76.1	76.1	78.0	43	52.0	3	4	248	0.00	30.281 
11:30	76.3	76.3	78.0	42	51.5	2	4	248	0.00	30.277 
11:35	76.8	76.8	78.2	41	51.3	2	5	270	0.00	30.277 
11:40	77.2	77.2	78.3	39	50.3	2	5	248	0.00	30.277 
11:45	77.4	77.4	78.5	42	52.5	2	6	248	0.00	30.276 
11:50	77.6	77.6	78.5	39	50.7	2	5	270	0.00	30.276 
11:55	77.9	77.9	78.6	38	50.2	3	5	270	0.00	30.276 
12:00	78.3	78.3	78.7	37	49.9	2	5	248	0.00	30.268 
12:05	78.6	78.6	79.0	39	51.5	2	5	248	0.00	30.268 
12:10	79.0	79.0	79.2	39	51.9	2	5	248	0.00	30.268 
12:15	79.2	79.2	79.3	39	52.1	2	3	270	0.00	30.262 
12:20	79.4	79.4	79.2	36	50.1	2	5	248	0.00	30.262 
12:25	79.8	79.8	79.4	35	49.7	2	5	270	0.00	30.262 
12:30	79.8	79.8	79.4	35	49.7	2	5	292	0.00	30.256 
12:35	79.9	79.9	79.4	34	49.0	2	4	248	0.00	30.256 
12:40	80.1	80.1	79.6	35	50.0	2	5	248	0.00	30.256 
12:45	80.1	80.1	79.6	35	50.0	2	4	270	0.00	30.248 
12:50	80.1	80.1	79.5	34	49.2	3	5	292	0.00	30.248 
12:55	80.3	80.3	79.8	36	50.9	2	3	270	0.00	30.248 
13:00	80.7	80.7	80.0	35	50.5	2	5	248	0.00	30.244 
13:05	80.9	80.9	80.1	35	50.7	2	4	248	0.00	30.244 
13:10	80.9	80.9	80.0	33	49.1	2	5	270	0.00	30.244 
13:15	81.1	81.1	80.3	35	50.8	3	9	248	0.00	30.235 
13:20	81.2	81.2	80.3	34	50.1	2	6	248	0.00	30.235 
13:25	81.6	81.6	80.4	32	48.9	2	6	270	0.00	30.235 
13:30	81.4	81.4	80.3	33	49.5	3	9	270	0.00	30.225 
13:35	81.2	81.2	80.0	31	47.7	3	7	248	0.00	30.225 
13:40	81.2	81.2	80.2	33	49.3	3	5	270	0.00	30.225 
13:45	81.6	81.6	80.5	33	49.7	2	4	248	0.00	30.222 
13:50	82.0	82.0	80.7	33	50.0	2	6	248	0.00	30.222 
13:55	82.4	82.4	81.2	35	52.0	1	4	248	0.00	30.222 
14:00	82.0	82.0	80.6	31	48.4	3	7	248	0.00	30.215 
14:05	81.4	81.4	80.1	31	47.8	2	6	270	0.00	30.215 
14:10	81.4	81.4	80.4	34	50.3	1	6	315	0.00	30.215 
14:15	82.2	82.2	80.6	30	47.7	2	6	270	0.00	30.207 
14:20	82.4	82.4	80.6	28	46.0	4	9	248	0.00	30.207 
14:25	82.4	82.4	80.9	31	48.7	2	10	292	0.00	30.207 
14:30	83.0	83.0	81.1	29	47.4	2	6	292	0.00	30.206 
14:35	83.2	83.2	81.3	29	47.6	3	6	270	0.00	30.206 
14:40	82.6	82.6	80.8	29	47.1	3	6	270	0.00	30.206 
14:45	82.4	82.4	80.6	28	46.0	3	7	270	0.00	30.194 
14:50	82.8	82.8	81.2	31	49.0	3	7	248	0.00	30.194 
14:55	83.8	83.8	81.7	29	48.1	2	7	248	0.00	30.194 
15:00	84.0	84.0	81.8	28	47.4	2	6	248	0.00	30.190 
15:05	84.1	84.1	81.9	28	47.4	2	6	248	0.00	30.190 
15:10	84.0	84.0	81.6	26	45.4	4	11	248	0.00	30.190 
15:15	83.4	83.4	81.4	28	46.8	4	11	248	0.00	30.192 
15:20	83.4	83.4	81.4	28	46.8	3	7	248	0.00	30.192 
15:25	83.2	83.2	81.2	28	46.7	3	11	270	0.00	30.192 
15:30	83.2	83.2	81.2	28	46.7	3	10	248	0.00	30.182 
15:35	83.4	83.4	81.4	28	46.8	3	7	270	0.00	30.182 
15:40	83.0	83.0	81.0	28	46.5	3	10	248	0.00	30.182 
15:45	81.8	81.8	80.2	28	45.5	3	7	248	0.00	30.178 
15:50	82.2	82.2	80.6	30	47.7	3	6	248	0.00	30.178 
15:55	82.8	82.8	80.9	28	46.3	3	9	248	0.00	30.178 
16:00	82.6	82.6	80.8	28	46.2	3	7	270	0.00	30.166 
16:05	83.0	83.0	81.0	28	46.5	2	6	248	0.00	30.166 
16:10	83.2	83.2	81.2	28	46.7	3	8	248	0.00	30.166 
16:15	83.4	83.4	81.7	32	50.4	3	7	248	0.00	30.165 
16:20	83.2	83.2	81.2	28	46.7	3	7	248	0.00	30.165 
16:25	83.2	83.2	81.1	27	45.7	3	8	248	0.00	30.165 
16:30	83.4	83.4	81.4	28	46.8	3	10	248	0.00	30.162 
16:35	83.2	83.2	81.1	27	45.7	4	9	248	0.00	30.162 
16:40	82.4	82.4	80.6	28	46.0	3	7	248	0.00	30.162 
16:45	82.4	82.4	80.6	28	46.0	4	10	270	0.00	30.157 
16:50	82.6	82.6	80.7	27	45.2	4	7	270	0.00	30.157 
16:55	82.6	82.6	80.8	28	46.2	3	7	248	0.00	30.157 
17:00	82.4	82.4	80.6	28	46.0	3	6	270	0.00	30.148 
17:05	82.4	82.4	80.6	28	46.0	3	7	248	0.00	30.148 
17:10	82.4	82.4	80.5	26	44.0	4	12	270	0.00	30.148 
17:15	82.0	82.0	80.3	27	44.7	4	10	270	0.00	30.149 
17:20	81.6	81.6	80.1	28	45.3	3	8	248	0.00	30.149 
17:25	81.8	81.8	80.2	28	45.5	3	6	270	0.00	30.149 
17:30	81.6	81.6	80.0	27	44.4	2	4	248	0.00	30.147 
17:35	81.8	81.8	80.1	27	44.5	2	6	248	0.00	30.147 
17:40	81.6	81.6	80.0	27	44.4	4	7	270	0.00	30.147 
17:45	81.4	81.4	79.9	27	44.2	4	9	270	0.00	30.147 
17:50	81.2	81.2	79.7	27	44.0	3	7	248	0.00	30.147 
17:55	81.1	81.1	79.7	28	44.9	3	5	270	0.00	30.147 
18:00	80.9	80.9	79.6	28	44.7	3	7	248	0.00	30.140 
18:05	80.9	80.9	79.5	27	43.8	3	7	248	0.00	30.140 
18:10	80.7	80.7	79.4	27	43.6	2	5	248	0.00	30.140 
18:15	80.9	80.9	79.5	26	42.8	2	6	248	0.00	30.134 
18:20	80.9	80.9	79.5	27	43.8	2	6	248	0.00	30.134 
18:25	80.7	80.7	79.4	27	43.6	3	6	248	0.00	30.134 
18:30	80.7	80.7	79.4	27	43.6	3	7	248	0.00	30.126 
18:35	80.5	80.5	79.3	27	43.4	2	7	270	0.00	30.126 
18:40	80.3	80.3	79.2	28	44.2	2	9	248	0.00	30.126 
18:45	80.1	80.1	79.1	27	43.1	2	5	248	0.00	30.120 
18:50	79.9	79.9	79.0	28	43.9	2	4	248	0.00	30.120 
18:55	79.8	79.8	78.9	28	43.8	2	7	270	0.00	30.120 
19:00	79.6	79.6	78.8	27	42.7	3	8	248	0.00	30.117 
19:05	79.4	79.4	78.7	28	43.4	2	5	248	0.00	30.117 
19:10	79.0	79.0	78.6	29	44.0	1	4	248	0.00	30.117 
19:15	78.8	78.8	78.4	28	42.9	2	5	248	0.00	30.114 
19:20	78.6	78.6	78.4	29	43.7	1	5	248	0.00	30.114 
19:25	78.5	78.5	78.4	30	44.5	1	3	248	0.00	30.114 
19:30	78.3	78.3	78.3	30	44.3	1	6	248	0.00	30.109 
19:35	78.3	78.3	78.3	30	44.3	1	4	248	0.00	30.109 
19:40	78.1	78.1	78.1	29	43.2	1	4	248	0.00	30.109 
19:45	77.9	77.9	78.0	29	43.1	1	5	248	0.00	30.108 
19:50	77.9	77.9	78.0	29	43.1	2	5	248	0.00	30.108 
19:55	77.7	77.7	77.9	29	42.9	1	4	248	0.00	30.108 
20:00	77.4	77.4	77.8	29	42.6	0	2	248	0.00	30.104 
20:05	77.2	77.2	77.8	30	43.3	1	5	248	0.00	30.104 
20:10	77.0	77.0	77.7	30	43.2	1	4	248	0.00	30.104 
20:15	77.0	77.0	77.6	29	42.3	2	5	225	0.00	30.102 
20:20	76.7	76.7	77.6	31	43.8	1	3	225	0.00	30.102 
20:25	76.5	76.5	77.5	31	43.6	1	4	248	0.00	30.102 
20:30	76.3	76.3	77.4	30	42.6	1	4	248	0.00	30.103 
20:35	76.3	76.3	77.4	30	42.6	2	7	248	0.00	30.103 
20:40	76.0	76.0	77.3	30	42.3	1	4	270	0.00	30.103 
20:45	75.6	75.6	77.2	31	42.8	0	1	248	0.00	30.100 
20:50	75.3	75.3	77.2	32	43.4	0	2	248	0.00	30.100 
20:55	74.9	74.9	74.9	33	43.8	0	1	248	0.00	30.100 
21:00	74.4	74.4	74.4	33	43.4	0	2	248	0.00	30.103 
21:05	74.2	74.2	74.2	33	43.2	1	2	248	0.00	30.103 
21:10	74.2	74.2	74.2	33	43.2	0	2	248	0.00	30.103 
21:15	74.0	74.0	74.0	34	43.8	1	4	248	0.00	30.105 
21:20	74.0	74.0	74.0	33	43.1	1	3	248	0.00	30.105 
21:25	73.9	73.9	73.9	33	43.0	1	2	248	0.00	30.105 
21:30	73.9	73.9	73.9	34	43.7	0	2	248	0.00	30.100 
21:35	73.5	73.5	73.5	33	42.6	1	4	248	0.00	30.100 
21:40	73.3	73.3	73.3	34	43.2	0	3	248	0.00	30.100 
21:45	73.2	73.2	73.2	35	43.9	0	2	248	0.00	30.098 
21:50	72.8	72.8	72.8	36	44.3	0	3	248	0.00	30.098 
21:55	72.5	72.5	72.5	36	44.0	0	2	248	0.00	30.098 
22:00	72.3	72.3	72.3	37	44.6	0	1	248	0.00	30.100 
22:05	71.8	71.8	71.8	37	44.1	0	1	248	0.00	30.100 
22:10	71.6	71.6	71.6	38	44.6	0	2	248	0.00	30.100 
22:15	71.3	71.3	71.3	39	45.1	0	1	248	0.00	30.097 
22:20	71.1	71.1	71.1	39	44.9	0	2	248	0.00	30.097 
22:25	70.9	70.9	70.9	40	45.4	0	2	248	0.00	30.097 
22:30	70.8	70.8	70.8	40	45.3	1	5	248	0.00	30.098 
22:35	70.8	70.8	70.8	40	45.3	1	2	248	0.00	30.098 
22:40	70.8	70.8	70.8	40	45.3	0	2	248	0.00	30.098 
22:45	70.8	70.8	70.8	40	45.3	0	2	248	0.00	30.095 
22:50	70.6	70.6	70.6	41	45.7	1	4	270	0.00	30.095 
22:55	70.6	70.6	70.6	41	45.7	0	2	270	0.00	30.095 
23:00	70.4	70.4	70.4	41	45.6	0	1	270	0.00	30.095 
23:05	70.6	70.6	70.6	41	45.7	1	5	248	0.00	30.095 
23:10	70.6	70.6	70.6	41	45.7	0	2	248	0.00	30.095 
23:15	70.6	70.6	70.6	41	45.7	0	3	248	0.00	30.090 
23:20	70.4	70.4	70.4	41	45.6	1	3	248	0.00	30.090 
23:25	70.4	70.4	70.4	41	45.6	1	5	248	0.00	30.090 
23:30	70.6	70.6	70.6	41	45.7	1	4	248	0.00	30.084 
23:35	70.6	70.6	70.6	41	45.7	1	4	248	0.00	30.084 
23:40	70.6	70.6	70.6	42	46.4	1	3	248	0.00	30.084 
23:45	70.4	70.4	70.4	42	46.2	1	2	270	0.00	30.084 
23:50	70.3	70.3	70.3	42	46.1	1	3	248	0.00	30.084 
23:55	70.3	70.3	70.3	42	46.1	1	3	248	0.00	30.084 

CoCoRaHS
IN-AL-39
A2 Web Hosting
Creative Commons License
GoDaddy
search engine by freefind advanced

loaded 2018-11-20 07:04:23 • last modified 2010-11-18 10:43:29
Privacy PolicyDisclaimer
• wx.awcolley.com is powered by PmWiki v.2002016 •
• all content (unless otherwise noted) © 2018 A W Colley